Time;durP1;ratioP1;P1;durP2;ratioP2;P2;SDS_P1;SDS_P2;PMS_P1;PMS_P2;Temp;Humidity;BMP_temperature;BMP_pressure;BME280_temperature;BME280_humidity;BME280_pressure;Samples;Min_cycle;Max_cycle;Signal;HPM_P1;HPM_P2
2023/08/02 00:01:06;;;;;;;;;;;20.50;56.10;;;19.61;56.44;99794.97;12257216;19;19927;-88
2023/08/02 00:05:08;;;;;;;;;;;20.50;56.10;;;19.62;56.53;99795.78;12255718;19;19966;-88
2023/08/02 00:09:09;;;;;;;;;;;20.50;56.20;;;19.61;56.19;99787.03;12255593;19;19942;-88
2023/08/02 00:13:11;;;;;;;;;;;20.50;56.20;;;19.55;56.37;99778.91;12254621;19;19915;-88
2023/08/02 00:17:13;;;;;;;;;;;20.50;56.20;;;19.59;56.23;99796.13;12251970;19;19918;-88
2023/08/02 00:21:15;;;;;;;;;;;20.50;56.20;;;19.57;56.40;99792.81;12254995;19;19939;-88
2023/08/02 00:25:16;;;;;;;;;;;20.50;56.20;;;19.56;56.49;99793.81;12253225;19;19932;-89
2023/08/02 00:29:18;;;;;;;;;;;20.40;56.10;;;19.51;56.23;99794.28;12253009;19;20277;-88
2023/08/02 00:33:20;;;;;;;;;;;20.40;56.10;;;19.53;56.63;99796.78;12251047;19;19922;-89
2023/08/02 00:37:25;;;;;;;;;;;20.40;56.20;;;19.51;56.23;99802.25;12250600;19;19911;-88
2023/08/02 00:41:27;;;;;;;;;;;20.40;56.50;;;19.35;56.37;99784.53;12252690;19;19911;-88
2023/08/02 00:45:29;;;;;;;;;;;20.40;56.20;;;19.42;56.48;99788.19;12248631;19;19924;-89
2023/08/02 00:49:31;;;;;;;;;;;20.40;56.20;;;19.44;56.57;99793.28;12249858;19;19938;-88
2023/08/02 00:53:32;;;;;;;;;;;20.30;56.10;;;19.42;56.26;99801.41;12250170;19;19923;-88
2023/08/02 00:57:34;;;;;;;;;;;20.30;56.20;;;19.39;56.52;99812.34;12249766;19;19974;-88
2023/08/02 01:01:35;;;;;;;;;;;20.30;56.20;;;19.16;56.82;99783.00;12250641;19;20625;-88
2023/08/02 01:05:42;;;;;;;;;;;20.30;56.20;;;19.31;56.26;99820.28;12250452;19;19922;-88
2023/08/02 01:09:52;;;;;;;;;;;20.20;56.20;;;19.32;56.54;99811.34;12246771;19;19915;-88
2023/08/02 01:13:56;;;;;;;;;;;20.20;56.20;;;19.32;56.72;99815.81;12249891;19;20337;-88
2023/08/02 01:17:58;;;;;;;;;;;20.20;56.20;;;19.05;56.49;99778.03;12245650;19;19917;-89
2023/08/02 01:22:00;;;;;;;;;;;20.20;56.20;;;19.31;56.63;99816.78;12250330;19;19910;-88
2023/08/02 01:26:04;;;;;;;;;;;20.10;56.20;;;19.22;56.28;99805.34;12249328;19;19926;-88
2023/08/02 01:30:08;;;;;;;;;;;20.10;56.20;;;19.23;56.63;99817.63;12249153;19;19907;-89
2023/08/02 01:34:09;;;;;;;;;;;20.10;56.30;;;19.22;56.69;99811.47;12247911;19;20281;-88
2023/08/02 01:38:13;;;;;;;;;;;20.10;56.30;;;19.18;56.74;99804.03;12248858;19;19946;-88
2023/08/02 01:42:14;;;;;;;;;;;20.10;56.30;;;19.22;56.81;99803.53;12250877;19;19922;-89
2023/08/02 01:46:16;;;;;;;;;;;20.10;56.40;;;19.18;56.40;99802.22;12249513;19;19930;-88
2023/08/02 01:50:17;;;;;;;;;;;20.10;56.30;;;19.11;56.63;99800.38;12260967;19;20309;-88
2023/08/02 01:54:19;;;;;;;;;;;20.10;56.30;;;18.96;56.76;99769.28;12259926;19;19923;-87
2023/08/02 01:58:21;;;;;;;;;;;20.10;56.30;;;19.17;56.87;99805.00;12260394;19;19919;-88
2023/08/02 02:02:23;;;;;;;;;;;20.10;56.30;;;19.15;56.62;99807.84;12263099;19;19910;-88
2023/08/02 02:06:24;;;;;;;;;;;20.10;56.30;;;19.11;56.87;99797.72;12258920;19;19918;-88
2023/08/02 02:10:26;;;;;;;;;;;20.10;56.30;;;19.04;56.88;99786.97;12261745;19;19926;-89
2023/08/02 02:14:28;;;;;;;;;;;20.10;56.40;;;19.06;56.81;99778.88;12263260;19;19915;-89
2023/08/02 02:18:29;;;;;;;;;;;20.10;56.40;;;19.04;56.76;99780.84;12256320;19;20432;-88
2023/08/02 02:22:31;;;;;;;;;;;20.10;56.40;;;18.98;56.50;99779.66;12261666;19;19915;-88
2023/08/02 02:26:34;;;;;;;;;;;20.10;56.30;;;18.88;56.40;99758.66;12257532;19;19961;-88
2023/08/02 02:30:36;;;;;;;;;;;20.10;56.40;;;19.11;56.97;99803.84;12260272;19;19927;-88
2023/08/02 02:34:37;;;;;;;;;;;20.10;56.50;;;19.09;56.91;99786.47;12257515;19;19952;-88
2023/08/02 02:38:39;;;;;;;;;;;20.00;56.50;;;18.91;56.93;99763.63;12261453;19;19903;-88
2023/08/02 02:42:41;;;;;;;;;;;20.00;56.50;;;18.84;56.97;99759.97;12258556;19;19926;-88
2023/08/02 02:46:42;;;;;;;;;;;20.00;56.40;;;19.01;56.72;99790.78;12256096;19;19974;-88
2023/08/02 02:50:44;;;;;;;;;;;20.00;56.40;;;19.08;56.96;99804.19;12260720;19;19933;-88
2023/08/02 02:54:46;;;;;;;;;;;20.00;56.50;;;19.10;56.85;99802.19;12255873;19;19918;-88
2023/08/02 02:58:47;;;;;;;;;;;20.00;56.50;;;18.93;56.76;99784.63;12258760;19;19915;-88
2023/08/02 03:02:48;;;;;;;;;;;20.00;56.50;;;18.97;57.00;99786.78;12259332;19;19919;-88
2023/08/02 03:06:51;;;;;;;;;;;20.00;56.60;;;18.89;56.95;99768.25;12258527;19;19914;-87
2023/08/02 03:10:52;;;;;;;;;;;20.00;56.60;;;19.02;56.92;99787.13;12258799;19;19915;-88
2023/08/02 03:14:54;;;;;;;;;;;20.00;56.60;;;19.06;56.81;99802.69;12255056;19;19914;-88
2023/08/02 03:18:55;;;;;;;;;;;20.00;56.60;;;19.06;56.64;99805.31;12252652;19;19919;-89
2023/08/02 03:22:56;;;;;;;;;;;20.00;56.70;;;18.79;56.83;99763.13;12254047;19;19915;-87
2023/08/02 03:26:58;;;;;;;;;;;20.00;56.60;;;19.07;57.10;99805.19;12254731;19;19923;-88
2023/08/02 03:31:00;;;;;;;;;;;20.00;56.60;;;19.07;56.91;99807.00;12259197;19;19917;-87
2023/08/02 03:35:01;;;;;;;;;;;20.00;56.60;;;19.06;57.01;99805.31;12255520;19;19936;-88
2023/08/02 03:39:03;;;;;;;;;;;20.00;56.60;;;18.84;56.98;99772.38;12258160;19;19915;-88
2023/08/02 03:43:04;;;;;;;;;;;20.00;56.60;;;19.07;57.14;99805.19;12259062;19;19922;-88
2023/08/02 03:47:06;;;;;;;;;;;20.00;56.60;;;19.07;57.14;99820.25;12255233;19;19939;-88
2023/08/02 03:51:08;;;;;;;;;;;20.00;56.80;;;18.94;56.78;99812.75;12257463;19;19918;-87
2023/08/02 03:55:09;;;;;;;;;;;20.00;56.60;;;18.84;56.73;99790.88;12255440;19;19923;-88
2023/08/02 03:59:11;;;;;;;;;;;20.00;56.60;;;18.79;56.91;99780.78;12251284;19;19932;-88
2023/08/02 04:03:12;;;;;;;;;;;20.00;56.60;;;18.97;56.97;99810.59;12254622;19;19911;-88
2023/08/02 04:07:14;;;;;;;;;;;20.00;57.00;;;18.92;57.08;99806.78;12254471;19;19923;-88
2023/08/02 04:11:15;;;;;;;;;;;20.00;56.60;;;18.96;57.02;99813.44;12256894;19;19915;-89
2023/08/02 04:15:17;;;;;;;;;;;19.90;56.60;;;18.99;57.05;99813.09;12252845;19;19939;-89
2023/08/02 04:19:18;;;;;;;;;;;20.00;56.80;;;19.04;56.98;99828.47;12254704;19;19923;-88
2023/08/02 04:23:20;;;;;;;;;;;20.00;56.80;;;18.79;57.23;99789.56;12258147;19;19986;-89
2023/08/02 04:27:21;;;;;;;;;;;20.00;56.70;;;19.05;57.05;99830.16;12252736;19;20261;-88
2023/08/02 04:31:23;;;;;;;;;;;20.00;56.80;;;18.91;57.00;99808.59;12251351;19;19930;-89
2023/08/02 04:35:24;;;;;;;;;;;20.00;56.80;;;18.93;57.31;99808.44;12253743;19;20263;-88
2023/08/02 04:39:25;;;;;;;;;;;20.00;56.80;;;19.06;57.28;99826.50;12256738;19;19951;-89
2023/08/02 04:43:27;;;;;;;;;;;20.00;56.80;;;19.07;56.89;99826.34;12256755;19;20250;-88
2023/08/02 04:47:28;;;;;;;;;;;20.00;56.80;;;19.11;57.25;99834.78;12252396;19;19919;-88
2023/08/02 04:51:31;;;;;;;;;;;20.00;56.90;;;19.08;57.30;99830.63;12255691;19;19942;-89
2023/08/02 04:55:43;;;;;;;;;;;20.00;56.90;;;18.95;56.99;99807.28;12254567;19;19918;-88
2023/08/02 04:59:45;;;;;;;;;;;20.10;56.90;;;18.92;57.29;99794.38;12254589;19;19918;-89
2023/08/02 05:03:46;;;;;;;;;;;20.10;57.00;;;19.13;56.98;99824.88;12255579;19;20387;-89
2023/08/02 05:07:48;;;;;;;;;;;20.10;56.90;;;19.03;57.37;99811.78;12252393;19;19926;-89
2023/08/02 05:11:49;;;;;;;;;;;20.10;57.00;;;19.11;57.13;99814.44;12254326;19;19923;-89
2023/08/02 05:15:51;;;;;;;;;;;20.10;57.00;;;19.14;57.17;99813.28;12248667;19;19915;-89
2023/08/02 05:19:53;;;;;;;;;;;20.10;56.90;;;19.12;57.41;99804.66;12251398;19;19964;-89
2023/08/02 05:23:54;;;;;;;;;;;20.10;57.10;;;19.15;57.03;99807.84;12249672;19;20346;-89
2023/08/02 05:27:56;;;;;;;;;;;20.10;57.00;;;19.18;57.49;99807.50;12255483;19;19914;-89
2023/08/02 05:31:58;;;;;;;;;;;20.20;57.10;;;19.22;57.35;99800.06;12259476;19;19974;-88
2023/08/02 05:36:00;;;;;;;;;;;20.10;57.00;;;19.18;57.23;99799.56;12251703;19;19918;-89
2023/08/02 05:40:02;;;;;;;;;;;20.20;57.30;;;19.31;57.18;99804.41;12253875;19;20349;-89
2023/08/02 05:44:03;;;;;;;;;;;20.30;57.10;;;19.36;57.43;99809.19;12261351;19;19919;-89
2023/08/02 05:48:05;;;;;;;;;;;20.30;57.30;;;19.35;57.19;99805.72;12255941;19;19934;-88
2023/08/02 05:52:06;;;;;;;;;;;20.30;57.30;;;19.32;57.33;99795.44;12255999;19;19918;-89
2023/08/02 05:56:08;;;;;;;;;;;20.30;57.60;;;19.28;57.35;99788.84;12257460;19;20258;-89
2023/08/02 06:00:09;;;;;;;;;;;20.30;57.30;;;19.42;57.42;99821.78;12261551;19;19981;-89
2023/08/02 06:04:11;;;;;;;;;;;20.40;57.60;;;19.45;57.55;99816.97;12260895;19;20615;-88
2023/08/02 06:08:12;;;;;;;;;;;20.40;57.30;;;19.52;57.23;99806.53;12257897;19;19919;-88
2023/08/02 06:12:14;;;;;;;;;;;20.50;57.30;;;19.61;57.47;99804.75;12266463;19;19954;-88
2023/08/02 06:16:15;;;;;;;;;;;20.50;57.40;;;19.66;57.47;99810.41;12267780;19;20282;-90
2023/08/02 06:20:16;;;;;;;;;;;20.60;57.90;;;19.70;57.61;99809.06;12265676;19;19911;-88
2023/08/02 06:24:18;;;;;;;;;;;20.60;57.50;;;19.75;57.57;99817.34;12265738;19;19918;-89
2023/08/02 06:28:19;;;;;;;;;;;20.70;57.30;;;19.80;57.49;99798.31;12255662;19;19919;-90
2023/08/02 06:32:21;;;;;;;;;;;20.80;57.40;;;19.73;57.58;99786.72;12258482;19;19933;-89
2023/08/02 06:36:22;;;;;;;;;;;20.80;57.20;;;19.91;57.57;99795.31;12259095;19;19927;-89
2023/08/02 06:40:23;;;;;;;;;;;20.90;57.20;;;19.99;57.47;99805.06;12259625;19;19960;-88
2023/08/02 06:44:25;;;;;;;;;;;21.00;57.20;;;20.08;57.70;99796.09;12262778;19;19933;-88
2023/08/02 06:48:27;;;;;;;;;;;21.10;57.40;;;20.02;57.75;99773.75;12244539;19;19915;-87
2023/08/02 06:52:30;;;;;;;;;;;21.10;57.20;;;20.15;57.23;99770.56;12256636;19;19990;-87
2023/08/02 06:56:31;;;;;;;;;;;21.30;57.10;;;20.33;57.39;99794.19;12258368;19;19933;-86
2023/08/02 07:00:33;;;;;;;;;;;21.30;57.00;;;20.40;57.19;99776.59;12262282;19;19919;-86
2023/08/02 07:04:35;;;;;;;;;;;21.40;56.90;;;20.53;57.22;99786.69;12261450;19;19918;-87
2023/08/02 07:08:40;;;;;;;;;;;21.50;57.00;;;20.63;57.64;99782.03;12262442;19;19948;-87
2023/08/02 07:12:42;;;;;;;;;;;21.60;56.90;;;20.67;57.70;99775.34;12259037;19;19911;-86
2023/08/02 07:16:43;;;;;;;;;;;21.80;56.90;;;20.73;57.71;99742.81;12251385;19;19998;-87
2023/08/02 07:20:45;;;;;;;;;;;21.90;56.90;;;20.87;57.55;99748.38;12258183;19;20429;-86
2023/08/02 07:24:46;;;;;;;;;;;22.00;56.70;;;21.01;57.66;99755.59;12258811;19;19919;-86
2023/08/02 07:28:48;;;;;;;;;;;22.10;56.70;;;21.13;57.48;99748.88;12253279;19;20223;-85
2023/08/02 07:32:50;;;;;;;;;;;22.20;56.50;;;20.98;57.75;99702.84;12255549;19;20235;-85
2023/08/02 07:36:51;;;;;;;;;;;22.30;56.40;;;21.35;57.42;99738.41;12249218;19;19937;-84
2023/08/02 07:40:53;;;;;;;;;;;22.40;56.80;;;21.57;57.44;99747.38;12247990;19;19927;-87
2023/08/02 07:45:02;;;;;;;;;;;22.60;56.20;;;21.47;57.53;99697.19;12249254;19;19925;-86
2023/08/02 07:49:04;;;;;;;;;;;22.70;56.00;;;21.84;57.49;99735.31;12247945;19;19926;-85
2023/08/02 07:53:06;;;;;;;;;;;22.90;56.10;;;21.97;57.40;99735.50;12255039;19;20524;-85
2023/08/02 07:57:08;;;;;;;;;;;23.00;55.80;;;22.15;57.77;99732.50;12253856;19;19923;-87
2023/08/02 08:01:10;;;;;;;;;;;23.20;56.20;;;22.33;57.50;99734.78;12253743;19;19923;-87
2023/08/02 08:05:11;;;;;;;;;;;23.40;55.90;;;22.53;57.53;99729.72;12253321;19;19926;-87
2023/08/02 08:09:13;;;;;;;;;;;23.60;53.70;;;22.46;57.08;99696.88;12251799;19;19926;-87
2023/08/02 08:13:14;;;;;;;;;;;23.70;53.50;;;22.69;57.27;99724.19;12253071;19;19922;-87
2023/08/02 08:17:15;;;;;;;;;;;23.80;53.50;;;22.77;57.33;99723.25;12253698;19;20333;-87
2023/08/02 08:21:17;;;;;;;;;;;23.90;54.60;;;22.97;57.24;99737.59;12258060;19;19945;-88
2023/08/02 08:25:19;;;;;;;;;;;24.00;54.80;;;23.14;57.09;99737.34;12253512;19;20499;-86
2023/08/02 08:29:20;;;;;;;;;;;24.20;55.30;;;23.11;57.32;99713.75;12255812;19;19911;-87
2023/08/02 08:33:22;;;;;;;;;;;24.30;54.70;;;23.33;57.01;99723.41;12258370;19;19978;-86
2023/08/02 08:37:24;;;;;;;;;;;24.50;54.80;;;23.30;57.17;99697.13;12255829;19;19915;-87
2023/08/02 08:41:29;;;;;;;;;;;24.60;54.80;;;23.52;56.98;99705.06;12252834;19;20528;-87
2023/08/02 08:45:32;;;;;;;;;;;24.70;53.20;;;23.71;56.97;99704.44;12259882;19;19927;-84
2023/08/02 08:49:34;;;;;;;;;;;24.90;53.80;;;23.86;56.80;99709.63;12262841;19;19915;-84
2023/08/02 08:53:41;;;;;;;;;;;25.00;53.10;;;23.94;57.16;99698.81;12260810;19;19943;-85
2023/08/02 08:57:45;;;;;;;;;;;25.10;48.10;;;24.08;56.39;99705.03;12259463;19;19910;-84
2023/08/02 09:01:46;;;;;;;;;;;25.20;52.60;;;24.13;56.72;99667.91;12261772;19;19923;-84
2023/08/02 09:05:48;;;;;;;;;;;25.30;52.10;;;24.09;56.74;99656.03;12261411;19;19927;-84
2023/08/02 09:09:50;;;;;;;;;;;25.40;52.30;;;24.41;56.52;99681.19;12263728;19;20113;-83
2023/08/02 09:14:14;;;;;;;;;;;25.50;47.10;;;24.52;56.07;99677.13;12263340;19;19918;-85
2023/08/02 09:18:16;;;;;;;;;;;25.50;49.10;;;24.55;55.82;99667.88;12260929;19;20359;-84
2023/08/02 09:22:18;;;;;;;;;;;25.70;51.60;;;24.69;55.96;99677.56;12263687;19;19919;-85
2023/08/02 09:26:23;;;;;;;;;;;25.80;51.80;;;24.82;55.85;99676.78;12261935;19;19919;-83
2023/08/02 09:30:27;;;;;;;;;;;25.90;48.70;;;24.95;56.15;99671.44;12258109;19;19935;-84
2023/08/02 09:34:43;;;;;;;;;;;26.00;51.40;;;24.95;55.59;99650.06;12256675;19;19914;-85
2023/08/02 09:39:14;;;;;;;;;;;26.10;48.10;;;24.95;55.40;99644.72;12254518;19;19963;-85
2023/08/02 09:43:15;;;;;;;;;;;26.10;49.30;;;25.04;55.40;99648.84;12252815;19;19918;-85
2023/08/02 09:47:18;;;;;;;;;;;26.10;50.40;;;25.08;55.50;99646.56;12253017;19;19922;-88
2023/08/02 09:51:20;;;;;;;;;;;26.20;48.40;;;25.19;55.71;99639.81;12261272;19;20273;-88
2023/08/02 09:55:21;;;;;;;;;;;26.30;49.90;;;25.30;55.33;99632.03;12251026;19;20424;-87
2023/08/02 09:59:25;;;;;;;;;;;26.40;51.30;;;25.41;55.11;99641.25;12259890;19;19952;-87
2023/08/02 10:03:28;;;;;;;;;;;26.40;52.00;;;25.59;55.10;99638.72;12264352;19;19931;-87
2023/08/02 10:07:44;;;;;;;;;;;26.60;51.00;;;25.68;55.01;99609.09;12262187;19;20613;-88
2023/08/02 10:11:51;;;;;;;;;;;26.70;48.70;;;25.75;54.74;99612.56;12272537;19;20018;-89
2023/08/02 10:15:55;;;;;;;;;;;26.90;50.00;;;25.77;55.29;99613.19;12270607;19;19938;-87
2023/08/02 10:20:02;;;;;;;;;;;26.90;50.70;;;25.67;54.78;99591.41;12275456;19;20444;-87
2023/08/02 10:24:04;;;;;;;;;;;26.90;47.20;;;25.78;54.46;99591.56;12274627;19;19971;-88
2023/08/02 10:28:06;;;;;;;;;;;27.00;50.60;;;25.88;54.41;99609.88;12269594;19;19926;-87
2023/08/02 10:32:17;;;;;;;;;;;26.90;50.30;;;25.85;54.73;99604.94;12275319;19;20355;-87
2023/08/02 10:36:20;;;;;;;;;;;26.90;49.10;;;25.88;54.74;99599.16;12274989;19;19995;-87
2023/08/02 10:40:22;;;;;;;;;;;26.90;47.30;;;25.90;54.38;99589.09;12276276;19;19922;-87
2023/08/02 10:44:23;;;;;;;;;;;27.00;49.30;;;25.91;54.21;99582.69;12274515;19;19962;-87
2023/08/02 10:48:27;;;;;;;;;;;27.00;50.70;;;26.00;54.23;99586.75;12271068;19;19933;-87
2023/08/02 10:52:30;;;;;;;;;;;27.10;51.20;;;26.08;54.54;99575.00;12274644;19;19943;-87
2023/08/02 10:56:32;;;;;;;;;;;27.10;51.40;;;26.02;54.13;99549.09;12274369;19;19949;-88
2023/08/02 11:00:37;;;;;;;;;;;27.10;48.20;;;26.01;54.13;99553.63;12275111;19;19927;-86
2023/08/02 11:04:45;;;;;;;;;;;27.10;50.00;;;26.17;53.84;99568.38;12278346;19;19930;-87
2023/08/02 11:08:46;;;;;;;;;;;27.10;49.10;;;26.16;53.83;99556.00;12274927;19;19926;-87
2023/08/02 11:12:53;;;;;;;;;;;27.10;47.30;;;26.04;53.41;99529.13;12281425;19;19929;-87
2023/08/02 11:16:55;;;;;;;;;;;27.10;49.80;;;26.20;53.71;99556.41;12275835;19;19922;-87
2023/08/02 11:21:14;;;;;;;;;;;27.20;48.40;;;26.16;53.19;99547.97;12272482;19;19930;-88
2023/08/02 11:25:20;;;;;;;;;;;27.10;49.10;;;25.96;53.35;99515.19;12268322;19;20333;-88
2023/08/02 11:29:23;;;;;;;;;;;27.10;50.10;;;26.06;53.43;99518.22;12273085;19;20391;-88
2023/08/02 11:33:25;;;;;;;;;;;27.10;49.80;;;26.12;53.41;99525.38;12268736;19;19919;-89
2023/08/02 11:37:27;;;;;;;;;;;27.10;50.40;;;26.02;53.48;99503.59;12260549;19;19946;-88
2023/08/02 11:41:28;;;;;;;;;;;27.00;50.20;;;25.92;53.55;99468.47;12271305;19;19958;-88
2023/08/02 11:45:35;;;;;;;;;;;27.00;48.50;;;26.02;53.44;99485.69;12265082;19;19922;-89
2023/08/02 11:49:55;;;;;;;;;;;27.00;50.10;;;26.07;53.22;99502.97;12262415;19;19919;-84
2023/08/02 11:53:59;;;;;;;;;;;27.00;49.20;;;25.98;53.07;99487.19;12259837;19;19921;-86
2023/08/02 11:58:01;;;;;;;;;;;27.00;49.50;;;26.02;52.96;99485.69;12256806;19;19924;-83
2023/08/02 12:02:02;;;;;;;;;;;26.90;50.10;;;26.00;52.83;99479.72;12253857;19;19945;-82
2023/08/02 12:06:04;;;;;;;;;;;26.90;47.60;;;25.95;53.06;99484.94;12253781;19;19914;-83
2023/08/02 12:10:05;;;;;;;;;;;26.90;49.30;;;25.87;52.51;99479.00;12256838;19;19956;-83
2023/08/02 12:14:07;;;;;;;;;;;26.80;47.90;;;25.82;52.72;99468.94;12253665;19;19922;-83
2023/08/02 12:18:08;;;;;;;;;;;26.80;49.30;;;25.81;52.62;99461.94;12251799;19;20015;-83
2023/08/02 12:22:09;;;;;;;;;;;26.70;48.30;;;25.86;52.31;99469.34;12254754;19;19961;-83
2023/08/02 12:26:11;;;;;;;;;;;26.70;48.20;;;25.85;52.54;99457.03;12248426;19;20364;-83
2023/08/02 12:30:16;;;;;;;;;;;26.70;49.10;;;25.80;52.65;99452.28;12254450;19;19946;-83
2023/08/02 12:34:17;;;;;;;;;;;26.70;46.90;;;25.85;52.37;99457.03;12250367;19;19990;-83
2023/08/02 12:38:19;;;;;;;;;;;26.70;48.90;;;25.89;52.39;99434.94;12252584;19;19933;-82
2023/08/02 12:42:20;;;;;;;;;;;26.70;48.80;;;25.97;52.15;99434.69;12251624;19;19986;-81
2023/08/02 12:46:21;;;;;;;;;;;26.80;45.70;;;25.98;52.13;99428.31;12250787;19;19922;-82
2023/08/02 12:50:23;;;;;;;;;;;26.80;48.00;;;26.03;52.23;99423.13;12254952;19;19930;-81
2023/08/02 12:54:24;;;;;;;;;;;26.80;47.60;;;26.09;52.00;99415.28;12252950;19;19934;-81
2023/08/02 12:58:26;;;;;;;;;;;26.90;49.00;;;26.11;52.01;99416.66;12252357;19;19921;-81
2023/08/02 13:02:27;;;;;;;;;;;26.90;47.90;;;26.13;52.25;99405.75;12253755;19;19931;-82
2023/08/02 13:06:28;;;;;;;;;;;26.90;48.60;;;26.10;51.91;99403.53;12255317;19;19926;-81
2023/08/02 13:10:30;;;;;;;;;;;27.00;48.60;;;26.11;51.59;99395.25;12253653;19;19994;-82
2023/08/02 13:14:31;;;;;;;;;;;26.90;46.10;;;26.11;51.72;99402.47;12253330;19;19919;-82
2023/08/02 13:18:32;;;;;;;;;;;27.00;48.00;;;26.07;51.78;99388.72;12249329;19;19918;-82
2023/08/02 13:22:34;;;;;;;;;;;27.00;48.50;;;26.14;51.49;99402.88;12254923;19;19926;-83
2023/08/02 13:26:35;;;;;;;;;;;27.00;48.10;;;26.12;51.68;99396.13;12252859;19;19915;-83
2023/08/02 13:30:37;;;;;;;;;;;26.90;47.20;;;26.11;51.55;99386.44;12249916;19;19926;-82
2023/08/02 13:34:38;;;;;;;;;;;26.90;49.00;;;26.12;51.62;99393.44;12252200;19;20366;-82
2023/08/02 13:38:39;;;;;;;;;;;26.90;49.40;;;26.02;51.75;99377.84;12246541;19;19918;-81
2023/08/02 13:42:41;;;;;;;;;;;26.90;48.90;;;25.99;51.75;99371.09;12248742;19;19958;-82
2023/08/02 13:46:43;;;;;;;;;;;26.90;49.60;;;26.07;51.71;99372.69;12250867;19;19927;-83
2023/08/02 13:50:45;;;;;;;;;;;26.90;47.30;;;25.99;51.49;99363.06;12263356;19;19986;-83
2023/08/02 13:54:46;;;;;;;;;;;26.80;49.80;;;25.95;51.23;99353.84;12258087;19;20281;-83
2023/08/02 13:58:48;;;;;;;;;;;26.80;49.30;;;25.91;51.28;99343.78;12264895;19;19922;-83
2023/08/02 14:02:49;;;;;;;;;;;26.70;50.20;;;25.91;51.42;99339.25;12255621;19;19911;-84
2023/08/02 14:06:51;;;;;;;;;;;26.70;50.70;;;25.90;51.47;99347.53;12257170;19;20353;-83
2023/08/02 14:10:53;;;;;;;;;;;26.60;50.40;;;25.73;51.64;99313.25;12259387;19;19922;-83
2023/08/02 14:14:55;;;;;;;;;;;26.60;49.20;;;25.75;51.32;99275.59;12256277;19;19926;-84
2023/08/02 14:18:56;;;;;;;;;;;26.50;49.30;;;25.69;51.39;99295.19;12259104;19;20260;-83
2023/08/02 14:22:58;;;;;;;;;;;26.50;50.00;;;25.56;51.24;99275.53;12261522;19;19919;-83
2023/08/02 14:26:59;;;;;;;;;;;26.40;48.20;;;25.56;51.46;99285.41;12258013;19;19911;-82
2023/08/02 14:31:01;;;;;;;;;;;26.40;49.40;;;25.54;51.52;99263.41;12258275;19;20363;-82
2023/08/02 14:35:03;;;;;;;;;;;26.40;49.30;;;25.61;51.27;99265.00;12257599;19;19918;-81
2023/08/02 14:39:05;;;;;;;;;;;26.40;48.60;;;25.61;51.15;99265.00;12257034;19;20337;-83
2023/08/02 14:43:07;;;;;;;;;;;26.30;49.30;;;25.60;51.11;99260.72;12258042;19;20389;-82
2023/08/02 14:47:08;;;;;;;;;;;26.40;49.20;;;25.56;51.51;99238.09;12253541;19;20297;-83
2023/08/02 14:51:09;;;;;;;;;;;26.30;47.30;;;25.58;51.28;99257.44;12258871;19;19918;-84
2023/08/02 14:55:11;;;;;;;;;;;26.30;48.20;;;25.57;50.95;99263.81;12251822;19;19923;-83
2023/08/02 14:59:12;;;;;;;;;;;26.30;49.40;;;25.58;50.96;99265.44;12257356;19;19923;-83
2023/08/02 15:03:14;;;;;;;;;;;26.30;50.00;;;25.58;51.12;99254.75;12255436;19;19930;-82
2023/08/02 15:07:15;;;;;;;;;;;26.40;50.00;;;25.54;51.15;99258.88;12256545;19;19927;-83
2023/08/02 15:11:17;;;;;;;;;;;26.40;50.10;;;25.56;51.31;99254.16;12258634;19;19915;-83
2023/08/02 15:15:18;;;;;;;;;;;26.30;48.70;;;25.52;50.81;99241.44;12252548;19;19926;-83
2023/08/02 15:19:20;;;;;;;;;;;26.30;49.80;;;25.51;50.94;99235.28;12258966;19;19927;-83
2023/08/02 15:23:22;;;;;;;;;;;26.30;49.90;;;25.37;50.82;99225.72;12257022;19;20352;-83
2023/08/02 15:27:24;;;;;;;;;;;26.30;49.40;;;25.39;51.31;99234.34;12252373;19;20348;-83
2023/08/02 15:31:25;;;;;;;;;;;26.20;48.40;;;25.40;50.85;99219.94;12253089;19;19925;-84
2023/08/02 15:35:27;;;;;;;;;;;26.20;48.50;;;25.37;51.02;99199.00;12256687;19;19922;-83
2023/08/02 15:39:28;;;;;;;;;;;26.10;49.90;;;25.35;51.32;99191.19;12254641;19;19922;-82
2023/08/02 15:43:30;;;;;;;;;;;26.10;49.30;;;25.29;50.71;99168.03;12257582;19;19939;-82
2023/08/02 15:47:32;;;;;;;;;;;26.10;49.60;;;25.23;51.22;99160.06;12248820;19;19925;-82
2023/08/02 15:51:33;;;;;;;;;;;26.00;47.20;;;25.23;50.54;99160.91;12249098;19;19923;-83
2023/08/02 15:55:35;;;;;;;;;;;26.00;46.40;;;25.15;50.44;99145.94;12249101;19;19921;-83
2023/08/02 15:59:36;;;;;;;;;;;25.90;46.20;;;25.03;50.40;99141.50;12251262;19;19922;-82
2023/08/02 16:03:41;;;;;;;;;;;25.90;47.90;;;25.07;50.39;99151.53;12253091;19;20535;-82
2023/08/02 16:07:42;;;;;;;;;;;25.80;47.70;;;25.00;50.77;99145.41;12248991;19;19923;-82
2023/08/02 16:11:43;;;;;;;;;;;25.80;46.20;;;24.95;50.20;99134.56;12250512;19;19975;-82
2023/08/02 16:15:45;;;;;;;;;;;25.80;46.60;;;24.98;50.44;99120.81;12250222;19;19934;-83
2023/08/02 16:19:46;;;;;;;;;;;25.70;48.20;;;24.99;50.67;99129.63;12255516;19;20020;-83
2023/08/02 16:23:48;;;;;;;;;;;25.80;48.90;;;25.01;50.62;99109.69;12247999;19;19932;-83
2023/08/02 16:27:49;;;;;;;;;;;25.70;47.90;;;24.92;50.27;99113.63;12250742;19;19915;-84
2023/08/02 16:31:51;;;;;;;;;;;25.80;48.80;;;24.97;50.20;99099.63;12247519;19;19918;-82
2023/08/02 16:35:52;;;;;;;;;;;25.70;47.90;;;24.94;50.18;99098.22;12250516;19;19969;-83
2023/08/02 16:39:53;;;;;;;;;;;25.70;48.10;;;24.92;50.18;99100.28;12252077;19;19915;-83
2023/08/02 16:43:55;;;;;;;;;;;25.70;48.10;;;24.85;50.33;99096.88;12252252;19;19926;-82
2023/08/02 16:47:57;;;;;;;;;;;25.60;47.20;;;24.75;50.52;99094.66;12244009;19;19958;-82
2023/08/02 16:51:58;;;;;;;;;;;25.60;48.40;;;24.68;49.94;99075.19;12252293;19;19911;-84
2023/08/02 16:56:00;;;;;;;;;;;25.50;47.50;;;24.77;50.10;99081.13;12246355;19;19932;-83
2023/08/02 17:00:01;;;;;;;;;;;25.50;48.20;;;24.76;50.06;99069.59;12248354;19;19931;-84
2023/08/02 17:04:03;;;;;;;;;;;25.50;48.80;;;24.66;50.45;99050.59;12250580;19;19932;-83
2023/08/02 17:08:04;;;;;;;;;;;25.50;49.00;;;24.67;50.33;99074.38;12241383;19;20261;-80
2023/08/02 17:12:07;;;;;;;;;;;25.50;48.90;;;24.47;50.45;99039.03;12251282;19;19941;-84
2023/08/02 17:16:08;;;;;;;;;;;25.40;48.70;;;24.58;50.13;99066.88;12243502;19;19932;-83
2023/08/02 17:20:10;;;;;;;;;;;25.40;49.00;;;24.45;50.59;99054.44;12236740;19;19930;-83
2023/08/02 17:24:12;;;;;;;;;;;25.30;48.90;;;24.49;50.39;99066.31;12239951;19;19936;-83
2023/08/02 17:28:14;;;;;;;;;;;25.30;49.00;;;24.41;50.55;99061.19;12240119;19;20941;-82
2023/08/02 17:32:15;;;;;;;;;;;25.20;49.40;;;24.33;50.41;99053.44;12250205;19;19942;-83
2023/08/02 17:36:17;;;;;;;;;;;25.10;49.40;;;24.28;50.33;99060.28;12247035;19;19955;-82
2023/08/02 17:40:19;;;;;;;;;;;25.10;49.80;;;24.22;50.43;99063.81;12246688;19;19919;-82
2023/08/02 17:44:20;;;;;;;;;;;25.00;49.90;;;24.14;50.42;99061.38;12249590;19;19926;-81
2023/08/02 17:48:22;;;;;;;;;;;24.90;50.20;;;24.10;50.36;99064.69;12243781;19;19922;-82
2023/08/02 17:52:24;;;;;;;;;;;24.90;50.40;;;23.99;50.52;99048.31;12247424;19;20378;-81
2023/08/02 17:56:25;;;;;;;;;;;24.80;50.60;;;23.91;50.55;99045.91;12240938;19;19922;-84
2023/08/02 18:00:32;;;;;;;;;;;24.70;50.60;;;23.84;50.88;99019.28;12249706;19;19923;-82
2023/08/02 18:04:34;;;;;;;;;;;24.70;50.90;;;23.87;51.01;99025.19;12248153;19;20325;-83
2023/08/02 18:08:35;;;;;;;;;;;24.60;50.90;;;23.72;50.63;98982.84;12250951;19;19922;-82
2023/08/02 18:12:37;;;;;;;;;;;24.60;51.10;;;23.81;50.90;99019.69;12248741;19;19922;-83
2023/08/02 18:16:38;;;;;;;;;;;24.60;51.40;;;23.72;50.69;99007.66;12251876;19;19919;-82
2023/08/02 18:20:39;;;;;;;;;;;24.50;51.40;;;23.75;50.59;99020.53;12246989;19;19926;-82